Time;durP1;ratioP1;P1;durP2;ratioP2;P2;SDS_P1;SDS_P2;PMS_P1;PMS_P2;Temp;Humidity;BMP_temperature;BMP_pressure;BME280_temperature;BME280_humidity;BME280_pressure;Samples;Min_cycle;Max_cycle;Signal;HPM_P1;HPM_P2
2021/06/08 00:00:54;;;;;;;19.73;8.65;;;15.70;99.90;;;;;;5056777;28;20021;-75
2021/06/08 00:03:20;;;;;;;15.90;9.07;;;15.70;99.90;;;;;;5049585;28;20026;-77
2021/06/08 00:05:46;;;;;;;14.20;8.00;;;15.70;99.90;;;;;;5056246;28;20025;-77
2021/06/08 00:08:12;;;;;;;14.70;9.20;;;15.60;99.90;;;;;;5068415;28;20036;-76
2021/06/08 00:10:38;;;;;;;11.40;7.87;;;15.60;99.90;;;;;;5045088;28;20024;-75
2021/06/08 00:13:03;;;;;;;17.90;9.30;;;15.60;99.90;;;;;;5055371;28;20051;-76
2021/06/08 00:15:30;;;;;;;15.17;9.17;;;15.50;99.90;;;;;;5047543;28;20031;-75
2021/06/08 00:17:55;;;;;;;17.75;9.60;;;15.50;99.90;;;;;;5047516;28;20033;-76
2021/06/08 00:20:21;;;;;;;16.30;9.57;;;15.50;99.90;;;;;;5051892;28;20424;-76
2021/06/08 00:22:47;;;;;;;17.90;7.90;;;15.50;99.90;;;;;;5054785;28;20116;-77
2021/06/08 00:25:13;;;;;;;12.40;7.73;;;15.40;99.90;;;;;;5054115;28;20032;-76
2021/06/08 00:27:39;;;;;;;20.25;8.82;;;15.40;99.90;;;;;;5059150;28;20359;-75
2021/06/08 00:30:05;;;;;;;15.40;9.73;;;15.30;99.90;;;;;;5045191;28;20113;-77
2021/06/08 00:32:31;;;;;;;13.45;8.57;;;15.30;99.90;;;;;;5065861;28;20049;-76
2021/06/08 00:34:57;;;;;;;23.70;10.65;;;15.30;99.90;;;;;;5055299;28;20311;-75
2021/06/08 00:37:22;;;;;;;16.17;9.53;;;15.30;99.90;;;;;;5058918;28;20039;-76
2021/06/08 00:39:48;;;;;;;22.07;9.97;;;15.20;99.90;;;;;;5051876;28;20017;-75
2021/06/08 00:42:14;;;;;;;14.00;8.93;;;15.20;99.90;;;;;;5054644;28;20047;-75
2021/06/08 00:44:40;;;;;;;13.77;7.63;;;15.10;99.90;;;;;;5051686;28;20032;-76
2021/06/08 00:47:06;;;;;;;18.05;9.10;;;15.10;99.90;;;;;;5054342;28;20103;-75
2021/06/08 00:49:31;;;;;;;16.33;9.43;;;15.10;99.90;;;;;;5037918;28;20029;-76
2021/06/08 00:51:57;;;;;;;13.43;7.67;;;15.10;99.90;;;;;;5043528;28;20150;-75
2021/06/08 00:54:23;;;;;;;14.67;8.47;;;15.00;99.90;;;;;;5051720;28;20128;-75
2021/06/08 00:56:49;;;;;;;14.50;8.37;;;15.00;99.90;;;;;;5057540;28;20033;-76
2021/06/08 00:59:15;;;;;;;13.65;7.88;;;14.90;99.90;;;;;;5051927;28;20044;-75
2021/06/08 01:01:41;;;;;;;7.67;4.97;;;14.80;99.90;;;;;;5053841;28;20082;-77
2021/06/08 01:04:09;;;;;;;11.38;7.00;;;14.80;99.90;;;;;;5052270;28;20119;-76
2021/06/08 01:06:37;;;;;;;13.70;8.23;;;14.70;99.90;;;;;;5056903;28;20017;-75
2021/06/08 01:09:07;;;;;;;14.48;8.75;;;14.70;99.90;;;;;;5046088;28;20021;-77
2021/06/08 01:11:33;;;;;;;10.18;6.53;;;14.60;99.90;;;;;;5049365;28;20309;-77
2021/06/08 01:13:59;;;;;;;12.00;7.53;;;14.60;99.90;;;;;;5047470;28;20154;-75
2021/06/08 01:16:25;;;;;;;14.33;8.17;;;14.60;99.90;;;;;;5051066;28;20135;-75
2021/06/08 01:18:51;;;;;;;14.53;8.63;;;14.60;99.90;;;;;;5054507;28;20036;-76
2021/06/08 01:21:17;;;;;;;15.43;8.70;;;14.50;99.90;;;;;;5053570;28;20036;-76
2021/06/08 01:23:43;;;;;;;16.27;9.30;;;14.50;99.90;;;;;;5049877;28;20385;-77
2021/06/08 01:26:13;;;;;;;15.50;9.20;;;14.50;99.90;;;;;;5048672;28;20017;-75
2021/06/08 01:28:40;;;;;;;15.15;9.40;;;14.50;99.90;;;;;;5053079;28;20043;-76
2021/06/08 01:31:12;;;;;;;16.60;8.57;;;14.50;99.90;;;;;;5053469;28;20029;-77
2021/06/08 01:33:40;;;;;;;21.08;10.13;;;14.50;99.90;;;;;;5054555;28;20036;-76
2021/06/08 01:36:11;;;;;;;15.65;10.13;;;14.50;99.90;;;;;;5050588;28;20159;-76
2021/06/08 01:38:38;;;;;;;18.33;8.75;;;14.50;99.90;;;;;;5065941;28;20590;-75
2021/06/08 01:41:04;;;;;;;15.07;9.18;;;14.40;99.90;;;;;;5052479;28;20033;-75
2021/06/08 01:43:30;;;;;;;14.10;8.03;;;14.40;99.90;;;;;;5049656;28;20145;-75
2021/06/08 01:45:56;;;;;;;17.30;9.60;;;14.30;99.90;;;;;;5049316;28;20254;-76
2021/06/08 01:48:22;;;;;;;13.77;8.90;;;14.30;99.90;;;;;;5069103;28;20419;-76
2021/06/08 01:50:50;;;;;;;16.00;9.73;;;14.20;99.90;;;;;;5054166;28;20104;-75
2021/06/08 01:53:23;;;;;;;15.13;9.38;;;14.20;99.90;;;;;;5052133;28;20040;-76
2021/06/08 01:55:53;;;;;;;15.77;9.38;;;14.20;99.90;;;;;;5052430;28;20445;-75
2021/06/08 01:58:31;;;;;;;20.83;9.48;;;14.20;99.90;;;;;;5051530;28;20083;-76
2021/06/08 02:01:01;;;;;;;14.15;9.18;;;14.20;99.90;;;;;;5053653;28;20305;-76
2021/06/08 02:03:32;;;;;;;14.98;9.07;;;14.20;99.90;;;;;;5057897;28;20112;-76
2021/06/08 02:06:14;;;;;;;12.52;8.20;;;14.10;99.90;;;;;;5044686;28;20017;-75
2021/06/08 02:08:58;;;;;;;17.33;8.95;;;14.10;99.90;;;;;;5052186;28;20032;-76
2021/06/08 02:11:44;;;;;;;14.48;8.63;;;14.00;99.90;;;;;;5053275;28;20025;-76
2021/06/08 02:14:26;;;;;;;14.45;8.80;;;13.90;99.90;;;;;;5063440;28;20430;-76
2021/06/08 02:17:21;;;;;;;14.40;8.70;;;13.90;99.90;;;;;;5063072;28;20446;-76
2021/06/08 02:19:51;;;;;;;25.38;10.45;;;13.80;99.90;;;;;;5046928;28;20043;-76
2021/06/08 02:22:21;;;;;;;16.92;9.52;;;13.80;99.90;;;;;;5053463;28;20033;-76
2021/06/08 02:24:47;;;;;;;15.63;9.60;;;13.90;99.90;;;;;;5055606;28;20117;-76
2021/06/08 02:27:14;;;;;;;;;;;13.80;99.90;;;;;;5073640;28;20028;-76
2021/06/08 02:29:44;;;;;;;14.90;9.05;;;13.90;99.90;;;;;;5056274;28;19965;-76
2021/06/08 02:32:10;;;;;;;16.33;9.48;;;13.90;99.90;;;;;;5051681;28;20032;-76
2021/06/08 02:34:37;;;;;;;14.85;9.18;;;13.90;99.90;;;;;;5051090;28;20025;-76
2021/06/08 02:37:04;;;;;;;;;;;13.80;99.90;;;;;;5066445;28;20451;-75
2021/06/08 02:39:31;;;;;;;15.13;8.63;;;13.70;99.90;;;;;;5044198;28;19904;-76
2021/06/08 02:41:57;;;;;;;14.35;8.73;;;13.70;99.90;;;;;;5056633;28;20044;-76
2021/06/08 02:44:25;;;;;;;18.63;10.02;;;13.70;99.90;;;;;;5042860;28;20324;-76
2021/06/08 02:46:52;;;;;;;18.58;10.00;;;13.70;99.90;;;;;;5052135;28;20048;-76
2021/06/08 02:49:20;;;;;;;19.55;10.15;;;13.70;99.90;;;;;;5047559;28;20040;-75
2021/06/08 02:51:46;;;;;;;22.67;9.32;;;13.60;99.90;;;;;;5040784;28;20021;-76
2021/06/08 02:54:13;;;;;;;16.37;9.50;;;13.70;99.90;;;;;;5051699;28;20036;-76
2021/06/08 02:56:40;;;;;;;17.42;9.90;;;13.70;99.90;;;;;;5062101;28;20039;-75
2021/06/08 02:59:07;;;;;;;16.65;9.48;;;13.70;99.90;;;;;;5058133;28;20041;-76
2021/06/08 03:01:34;;;;;;;;;;;13.80;99.90;;;;;;5051468;28;20471;-76
2021/06/08 03:04:01;;;;;;;14.35;9.05;;;13.70;99.90;;;;;;5045916;28;19913;-76
2021/06/08 03:06:29;;;;;;;;;;;13.70;99.90;;;;;;5042785;28;20029;-76
2021/06/08 03:09:07;;;;;;;18.50;9.80;;;13.70;99.90;;;;;;5048537;28;19916;-76
2021/06/08 03:11:52;;;;;;;18.45;9.10;;;13.60;99.90;;;;;;5047607;28;20108;-76
2021/06/08 03:14:20;;;;;;;13.60;8.40;;;13.50;99.90;;;;;;5054029;28;20124;-76
2021/06/08 03:16:57;;;;;;;14.27;9.02;;;13.60;99.90;;;;;;5055268;28;20033;-76
2021/06/08 03:19:31;;;;;;;17.33;9.40;;;13.60;99.90;;;;;;5053363;28;20119;-76
2021/06/08 03:22:02;;;;;;;17.60;8.80;;;13.60;99.90;;;;;;5055779;28;20290;-76
2021/06/08 03:24:32;;;;;;;15.60;9.30;;;13.50;99.90;;;;;;5056239;28;20033;-75
2021/06/08 03:27:00;;;;;;;13.07;8.30;;;13.50;99.90;;;;;;5059475;28;20021;-75
2021/06/08 03:29:27;;;;;;;10.85;6.30;;;13.60;99.90;;;;;;5036435;28;20036;-76
2021/06/08 03:31:53;;;;;;;6.93;4.50;;;13.50;99.90;;;;;;5054088;28;20021;-76
2021/06/08 03:34:20;;;;;;;6.25;3.15;;;13.40;99.90;;;;;;5055400;28;20050;-76
2021/06/08 03:36:52;;;;;;;5.40;3.00;;;13.20;99.90;;;;;;5054718;28;20392;-75
2021/06/08 03:39:19;;;;;;;13.55;2.38;;;13.00;99.90;;;;;;5053212;28;20033;-76
2021/06/08 03:41:46;;;;;;;5.95;2.42;;;12.90;99.90;;;;;;5043231;28;20399;-76
2021/06/08 03:44:13;;;;;;;3.55;2.33;;;12.80;99.90;;;;;;5054726;28;20033;-76
2021/06/08 03:46:40;;;;;;;8.30;3.70;;;12.80;99.90;;;;;;5062422;28;20028;-76
2021/06/08 03:49:06;;;;;;;4.43;3.30;;;12.80;99.90;;;;;;5037821;28;20076;-76
2021/06/08 03:51:32;;;;;;;6.97;3.67;;;12.80;99.90;;;;;;5038967;28;20451;-76
2021/06/08 03:54:01;;;;;;;5.97;4.03;;;12.80;99.90;;;;;;5046101;28;20020;-75
2021/06/08 03:56:29;;;;;;;5.50;3.72;;;12.80;99.90;;;;;;5053031;28;20066;-76
2021/06/08 03:58:56;;;;;;;4.97;3.28;;;12.80;99.90;;;;;;5051692;28;20028;-77
2021/06/08 04:01:23;;;;;;;6.07;4.35;;;12.80;99.90;;;;;;5066712;28;20163;-77
2021/06/08 04:03:50;;;;;;;5.75;4.00;;;12.80;99.90;;;;;;5052374;28;20037;-75
2021/06/08 04:06:20;;;;;;;4.65;3.72;;;12.80;99.90;;;;;;5052034;28;20320;-76
2021/06/08 04:08:46;;;;;;;7.60;4.22;;;12.80;99.90;;;;;;5053922;28;20029;-76
2021/06/08 04:11:13;;;;;;;8.65;5.95;;;12.80;99.90;;;;;;5053316;28;20744;-75
2021/06/08 04:13:40;;;;;;;12.48;8.63;;;12.90;99.90;;;;;;5052307;28;20048;-76
2021/06/08 04:16:07;;;;;;;11.90;7.72;;;12.90;99.90;;;;;;5053110;28;20025;-76
2021/06/08 04:18:34;;;;;;;8.82;5.85;;;13.00;99.90;;;;;;5053300;28;20025;-76
2021/06/08 04:21:00;;;;;;;6.38;4.07;;;13.00;99.90;;;;;;5053479;28;20123;-76
2021/06/08 04:23:28;;;;;;;4.28;2.95;;;13.00;99.90;;;;;;5052377;28;20178;-76
2021/06/08 04:25:54;;;;;;;5.75;3.85;;;12.90;99.90;;;;;;5052987;28;20131;-75
2021/06/08 04:28:22;;;;;;;6.93;5.10;;;13.00;99.90;;;;;;5052465;28;20536;-75
2021/06/08 04:30:49;;;;;;;9.88;5.28;;;13.00;99.90;;;;;;5053090;28;20040;-76
2021/06/08 04:33:22;;;;;;;10.63;6.45;;;13.00;99.90;;;;;;5050123;28;20078;-76
2021/06/08 04:35:49;;;;;;;14.10;7.65;;;13.00;99.90;;;;;;5052271;28;20394;-76
2021/06/08 04:38:15;;;;;;;13.80;7.63;;;13.10;99.90;;;;;;5050084;28;20029;-75
2021/06/08 04:40:46;;;;;;;10.85;7.65;;;13.10;99.90;;;;;;5050577;28;20455;-75
2021/06/08 04:43:12;;;;;;;10.48;6.93;;;13.30;99.90;;;;;;5050199;28;20049;-76
2021/06/08 04:45:39;;;;;;;10.48;7.10;;;13.40;99.90;;;;;;5051753;28;20029;-75
2021/06/08 04:48:05;;;;;;;13.73;7.03;;;13.50;99.90;;;;;;5049962;28;20063;-75
2021/06/08 04:50:31;;;;;;;13.52;7.63;;;13.50;99.90;;;;;;5050055;28;20040;-76
2021/06/08 04:52:57;;;;;;;12.93;6.70;;;13.60;99.90;;;;;;5047838;28;20037;-76
2021/06/08 04:55:25;;;;;;;13.32;7.80;;;13.70;99.90;;;;;;5052313;28;20128;-75
2021/06/08 04:57:52;;;;;;;16.05;9.27;;;13.90;99.90;;;;;;5049721;28;20032;-77
2021/06/08 05:00:22;;;;;;;13.20;9.43;;;14.00;99.90;;;;;;5051785;28;20033;-75
2021/06/08 05:02:56;;;;;;;16.38;8.75;;;14.10;99.90;;;;;;5048830;28;20055;-76
2021/06/08 05:05:27;;;;;;;18.48;9.50;;;14.20;99.90;;;;;;5051986;28;20078;-76
2021/06/08 05:08:09;;;;;;;16.38;9.63;;;14.20;99.90;;;;;;5050576;28;20017;-75
2021/06/08 05:10:42;;;;;;;17.17;9.32;;;14.20;99.90;;;;;;5050310;28;20105;-76
2021/06/08 05:13:12;;;;;;;20.58;9.35;;;14.40;99.90;;;;;;5066007;28;20029;-75
2021/06/08 05:15:39;;;;;;;15.85;9.57;;;14.50;99.90;;;;;;5053981;28;20305;-76
2021/06/08 05:18:11;;;;;;;14.77;8.40;;;14.60;99.90;;;;;;5051399;28;20036;-76
2021/06/08 05:20:43;;;;;;;14.25;8.70;;;14.70;99.90;;;;;;5048332;28;20132;-75
2021/06/08 05:23:12;;;;;;;13.05;9.07;;;14.70;99.90;;;;;;5052582;28;20040;-76
2021/06/08 05:25:39;;;;;;;16.45;9.02;;;14.90;99.90;;;;;;5052262;28;20033;-76
2021/06/08 05:28:06;;;;;;;14.52;9.35;;;14.90;99.90;;;;;;5051416;28;20033;-75
2021/06/08 05:30:32;;;;;;;14.48;9.30;;;15.00;99.90;;;;;;5050749;28;20123;-76
2021/06/08 05:32:58;;;;;;;12.48;8.25;;;15.10;99.90;;;;;;5048917;28;20028;-75
2021/06/08 05:35:29;;;;;;;10.97;7.67;;;15.10;99.90;;;;;;5052665;28;20044;-75
2021/06/08 05:38:05;;;;;;;20.20;8.35;;;15.20;99.90;;;;;;5051796;28;20029;-75
2021/06/08 05:40:31;;;;;;;;;;;15.20;99.90;;;;;;5051902;28;20485;-76
2021/06/08 05:42:57;;;;;;;11.75;6.80;;;15.30;99.90;;;;;;5052133;28;19924;-75
2021/06/08 05:45:23;;;;;;;13.00;6.37;;;15.40;99.90;;;;;;5051670;28;20078;-75
2021/06/08 05:47:49;;;;;;;11.63;6.77;;;15.50;99.90;;;;;;5053677;28;20025;-75
2021/06/08 05:50:16;;;;;;;8.03;5.87;;;15.60;99.90;;;;;;5050486;28;20103;-75
2021/06/08 05:52:42;;;;;;;8.50;5.90;;;15.60;99.90;;;;;;5053607;28;20045;-76
2021/06/08 05:55:11;;;;;;;11.43;6.20;;;15.70;99.90;;;;;;5052059;28;20387;-75
2021/06/08 05:57:37;;;;;;;8.10;5.90;;;15.70;99.90;;;;;;5051017;28;20033;-75
2021/06/08 06:00:05;;;;;;;11.25;5.45;;;15.70;99.90;;;;;;5047504;28;20028;-75
2021/06/08 06:02:35;;;;;;;10.15;5.53;;;15.80;99.90;;;;;;5050436;28;20029;-75
2021/06/08 06:05:01;;;;;;;6.40;4.55;;;15.90;99.90;;;;;;5048665;28;20336;-75
2021/06/08 06:07:27;;;;;;;7.65;5.00;;;15.90;99.90;;;;;;5051112;28;20033;-75
2021/06/08 06:09:53;;;;;;;7.25;4.95;;;16.00;99.90;;;;;;5053267;28;20065;-75
2021/06/08 06:12:20;;;;;;;8.27;3.90;;;16.00;99.90;;;;;;5052282;28;20056;-75
2021/06/08 06:14:49;;;;;;;6.65;4.45;;;16.10;99.90;;;;;;5050600;28;20293;-75
2021/06/08 06:17:18;;;;;;;6.20;4.35;;;16.10;99.90;;;;;;5051202;28;20120;-75
2021/06/08 06:19:45;;;;;;;4.80;3.90;;;16.20;99.90;;;;;;5049796;28;20339;-75
2021/06/08 06:22:11;;;;;;;7.95;4.68;;;16.20;99.90;;;;;;5047976;28;20029;-75
2021/06/08 06:24:37;;;;;;;7.73;4.00;;;16.20;99.90;;;;;;5043806;28;20041;-75
2021/06/08 06:27:03;;;;;;;5.95;3.95;;;16.30;99.90;;;;;;5045180;28;20345;-75
2021/06/08 06:29:29;;;;;;;9.05;4.10;;;16.40;99.90;;;;;;5055824;28;20029;-75
2021/06/08 06:31:56;;;;;;;6.88;3.88;;;16.50;99.90;;;;;;5051115;28;20419;-74
2021/06/08 06:34:24;;;;;;;7.20;2.97;;;16.60;99.90;;;;;;5048766;28;20068;-74
2021/06/08 06:36:51;;;;;;;8.75;3.55;;;16.60;99.90;;;;;;5053568;28;20025;-74
2021/06/08 06:39:21;;;;;;;13.77;4.38;;;16.60;99.90;;;;;;5041815;28;20079;-74
2021/06/08 06:41:50;;;;;;;5.57;3.67;;;16.80;99.90;;;;;;5052127;28;20416;-74
2021/06/08 06:44:19;;;;;;;6.35;3.03;;;16.90;99.90;;;;;;5045572;28;20041;-74
2021/06/08 06:46:47;;;;;;;7.47;3.53;;;16.90;99.90;;;;;;5052101;28;20111;-75
2021/06/08 06:49:13;;;;;;;7.60;3.53;;;16.90;99.90;;;;;;5049290;28;20144;-75
2021/06/08 06:51:41;;;;;;;5.13;3.03;;;16.90;99.90;;;;;;5044757;28;20057;-75
2021/06/08 06:54:09;;;;;;;4.38;3.15;;;17.00;99.90;;;;;;5042174;28;20115;-75
2021/06/08 06:56:34;;;;;;;5.18;3.20;;;17.10;99.90;;;;;;5054574;28;20029;-75
2021/06/08 06:59:00;;;;;;;5.95;3.28;;;17.20;99.90;;;;;;5041283;28;20044;-75
2021/06/08 07:01:27;;;;;;;6.73;2.90;;;17.20;99.90;;;;;;5048140;28;20424;-75
2021/06/08 07:03:55;;;;;;;3.30;2.50;;;17.20;99.90;;;;;;5053712;28;20108;-75
2021/06/08 07:06:21;;;;;;;8.23;3.30;;;17.30;99.90;;;;;;5048300;28;20025;-75
2021/06/08 07:08:54;;;;;;;;;;;17.30;99.90;;;;;;5047120;28;20029;-75
2021/06/08 07:11:23;;;;;;;3.70;2.42;;;17.30;99.90;;;;;;5063369;28;19917;-75
2021/06/08 07:13:50;;;;;;;9.88;2.83;;;17.40;99.90;;;;;;5039281;28;20022;-75
2021/06/08 07:16:16;;;;;;;5.25;2.22;;;17.40;99.90;;;;;;5049175;28;20432;-75
2021/06/08 07:18:46;;;;;;;5.53;2.45;;;17.50;99.90;;;;;;5056067;28;20043;-75
2021/06/08 07:21:16;;;;;;;3.53;2.08;;;17.60;99.90;;;;;;5057481;28;20065;-75
2021/06/08 07:23:48;;;;;;;4.25;1.80;;;17.70;99.90;;;;;;5054578;28;20037;-75
2021/06/08 07:26:17;;;;;;;3.33;1.40;;;17.90;99.90;;;;;;5062968;28;20017;-75
2021/06/08 07:28:43;;;;;;;3.78;1.40;;;18.00;99.90;;;;;;5046287;28;20021;-75
2021/06/08 07:31:13;;;;;;;2.05;1.50;;;18.20;99.90;;;;;;5055572;28;20027;-75
2021/06/08 07:33:47;;;;;;;1.85;1.33;;;18.30;99.90;;;;;;5054376;28;20154;-75
2021/06/08 07:36:29;;;;;;;3.20;1.40;;;18.50;99.90;;;;;;5065988;28;20318;-75
2021/06/08 07:39:21;;;;;;;3.33;1.27;;;18.60;99.90;;;;;;5052407;28;20029;-75
2021/06/08 07:42:08;;;;;;;2.40;1.60;;;18.80;99.90;;;;;;5052272;28;20423;-75
2021/06/08 07:45:01;;;;;;;2.92;1.30;;;18.90;99.90;;;;;;5053417;28;20025;-75
2021/06/08 07:47:31;;;;;;;1.77;1.30;;;19.10;99.90;;;;;;5051209;28;20024;-75
2021/06/08 07:49:58;;;;;;;2.22;1.27;;;19.30;99.90;;;;;;5062190;28;20024;-75
2021/06/08 07:52:25;;;;;;;3.40;1.38;;;19.40;99.90;;;;;;5042820;28;20056;-75
2021/06/08 07:54:51;;;;;;;;;;;19.40;99.90;;;;;;5055161;28;20032;-75
2021/06/08 07:57:19;;;;;;;2.88;1.27;;;19.60;99.90;;;;;;5048142;28;19908;-75
2021/06/08 07:59:45;;;;;;;2.97;1.50;;;19.70;99.90;;;;;;5051387;28;20036;-76
2021/06/08 08:02:12;;;;;;;2.95;1.42;;;19.90;99.90;;;;;;5050149;28;20055;-75
2021/06/08 08:04:48;;;;;;;4.47;1.88;;;20.00;99.90;;;;;;5048391;28;20029;-75
2021/06/08 08:07:17;;;;;;;3.65;1.05;;;20.10;99.90;;;;;;5041466;28;20112;-75
2021/06/08 08:09:43;;;;;;;9.32;2.33;;;20.30;99.90;;;;;;5035276;28;20156;-75
2021/06/08 08:12:09;;;;;;;2.60;1.37;;;20.50;99.90;;;;;;5051115;28;20100;-75
2021/06/08 08:14:35;;;;;;;3.35;1.10;;;20.80;99.90;;;;;;5052710;28;20455;-75
2021/06/08 08:17:02;;;;;;;2.73;1.20;;;21.00;99.90;;;;;;5051313;28;20037;-76
2021/06/08 08:19:28;;;;;;;4.13;1.90;;;21.10;99.90;;;;;;5048992;28;20111;-76
2021/06/08 08:21:54;;;;;;;2.70;1.60;;;21.10;99.90;;;;;;5047681;28;20101;-76
2021/06/08 08:24:20;;;;;;;7.27;1.70;;;21.10;99.90;;;;;;5053636;28;20036;-76
2021/06/08 08:26:46;;;;;;;5.03;2.08;;;21.20;99.90;;;;;;5053754;28;20126;-76
2021/06/08 08:29:11;;;;;;;3.47;2.57;;;21.10;99.90;;;;;;5056584;28;20025;-76
2021/06/08 08:31:38;;;;;;;4.60;2.03;;;21.10;99.90;;;;;;5059275;28;20056;-75
2021/06/08 08:34:04;;;;;;;4.15;2.03;;;21.10;99.90;;;;;;5041000;28;20029;-76
2021/06/08 08:36:31;;;;;;;;;;;21.20;99.90;;;;;;5058181;28;20103;-75
2021/06/08 08:38:57;;;;;;;5.55;2.50;;;21.20;99.90;;;;;;5058621;28;19940;-75
2021/06/08 08:41:22;;;;;;;2.83;1.50;;;21.20;99.90;;;;;;5046068;28;20069;-76
2021/06/08 08:43:50;;;;;;;2.97;1.73;;;21.20;99.90;;;;;;5050481;28;20033;-76
2021/06/08 08:46:18;;;;;;;4.70;1.83;;;21.40;99.90;;;;;;5040165;28;20318;-76
2021/06/08 08:48:45;;;;;;;2.53;1.60;;;21.50;99.90;;;;;;5048895;28;20029;-76
2021/06/08 08:51:13;;;;;;;2.60;1.73;;;21.60;99.90;;;;;;5047063;28;20024;-76
2021/06/08 08:53:40;;;;;;;4.22;2.30;;;21.60;99.90;;;;;;5040424;28;20035;-76
2021/06/08 08:56:06;;;;;;;3.20;2.00;;;21.60;99.90;;;;;;5038540;28;20432;-76
2021/06/08 08:58:33;;;;;;;2.65;1.92;;;21.70;99.90;;;;;;5044687;28;20034;-77
2021/06/08 09:00:59;;;;;;;4.00;1.77;;;21.70;99.90;;;;;;5054911;28;20406;-75
2021/06/08 09:03:26;;;;;;;1.63;1.50;;;21.70;99.90;;;;;;5050005;28;20033;-75
2021/06/08 09:05:55;;;;;;;2.10;1.75;;;21.70;99.90;;;;;;5033948;28;20068;-75
2021/06/08 09:08:21;;;;;;;3.08;1.58;;;21.70;99.90;;;;;;5047315;28;20367;-75
2021/06/08 09:10:47;;;;;;;2.85;1.60;;;22.00;99.90;;;;;;5055731;28;20053;-76
2021/06/08 09:13:13;;;;;;;2.58;1.90;;;21.90;99.90;;;;;;5047238;28;20032;-76
2021/06/08 09:15:39;;;;;;;2.70;1.97;;;22.10;99.90;;;;;;5041269;28;20439;-75
2021/06/08 09:18:05;;;;;;;2.30;1.80;;;22.20;99.90;;;;;;5050248;28;20036;-75
2021/06/08 09:20:32;;;;;;;4.45;2.25;;;22.30;99.90;;;;;;5055137;28;20033;-78
2021/06/08 09:23:04;;;;;;;4.82;2.65;;;22.10;99.30;;;;;;5053065;28;20324;-76
2021/06/08 09:25:36;;;;;;;2.00;1.67;;;22.10;99.90;;;;;;5053838;28;20320;-75
2021/06/08 09:28:32;;;;;;;4.05;1.90;;;22.10;99.90;;;;;;5054667;28;20399;-76
2021/06/08 09:31:12;;;;;;;3.08;2.00;;;22.20;99.90;;;;;;5045952;28;20025;-76
2021/06/08 09:33:39;;;;;;;4.30;2.17;;;22.30;99.90;;;;;;5041317;28;20268;-76
2021/06/08 09:36:16;;;;;;;3.67;2.00;;;22.30;99.90;;;;;;5056248;28;20478;-76
2021/06/08 09:38:53;;;;;;;1.95;1.55;;;22.40;99.90;;;;;;5063364;28;20033;-76
2021/06/08 09:41:32;;;;;;;3.47;2.30;;;22.50;99.90;;;;;;5048443;28;20317;-75
2021/06/08 09:43:57;;;;;;;2.92;1.92;;;22.50;98.70;;;;;;5052924;28;20033;-76
2021/06/08 09:46:44;;;;;;;3.30;2.47;;;22.60;98.70;;;;;;5051983;28;20045;-76
2021/06/08 09:49:17;;;;;;;3.03;1.70;;;22.70;99.90;;;;;;5051664;28;20013;-76
2021/06/08 09:51:51;;;;;;;4.93;2.00;;;22.80;98.70;;;;;;5062995;28;20419;-76
2021/06/08 09:54:25;;;;;;;4.55;1.77;;;22.90;99.90;;;;;;5043599;28;20029;-75
2021/06/08 09:56:51;;;;;;;2.45;1.90;;;23.00;98.00;;;;;;5052531;28;20115;-76
2021/06/08 09:59:40;;;;;;;3.47;1.37;;;23.00;96.30;;;;;;5052153;28;20029;-75
2021/06/08 10:02:23;;;;;;;5.45;1.60;;;22.80;97.00;;;;;;5059101;28;20629;-76
2021/06/08 10:04:48;;;;;;;3.20;1.40;;;22.80;95.60;;;;;;5060716;28;20025;-76
2021/06/08 10:07:31;;;;;;;2.87;1.57;;;22.90;97.10;;;;;;5045700;28;20483;-76
2021/06/08 10:10:12;;;;;;;3.20;1.50;;;22.90;95.20;;;;;;5044258;28;20042;-75
2021/06/08 10:12:57;;;;;;;2.05;1.10;;;22.90;95.60;;;;;;5051482;28;20021;-76
2021/06/08 10:15:24;;;;;;;2.00;1.20;;;23.00;96.60;;;;;;5053862;28;20029;-76
2021/06/08 10:17:58;;;;;;;1.88;1.20;;;23.20;97.30;;;;;;5048400;28;20029;-76
2021/06/08 10:20:25;;;;;;;1.17;1.08;;;23.30;95.00;;;;;;5052441;28;20028;-76
2021/06/08 10:22:52;;;;;;;1.88;1.15;;;23.20;94.80;;;;;;5052585;28;20018;-76
2021/06/08 10:25:18;;;;;;;2.80;1.40;;;23.30;95.70;;;;;;5037148;28;20032;-76
2021/06/08 10:27:44;;;;;;;4.93;2.10;;;23.40;94.70;;;;;;5054963;28;20382;-75
2021/06/08 10:30:11;;;;;;;2.83;1.50;;;23.30;95.20;;;;;;5033695;28;20045;-76
2021/06/08 10:32:37;;;;;;;1.65;1.48;;;23.30;94.40;;;;;;5050159;28;20387;-76
2021/06/08 10:35:04;;;;;;;;;;;23.40;95.00;;;;;;5053789;28;20025;-76
2021/06/08 10:37:31;;;;;;;2.95;1.63;;;23.50;95.30;;;;;;5067353;28;19948;-76
2021/06/08 10:39:59;;;;;;;2.13;1.92;;;23.50;93.50;;;;;;5053195;28;20024;-76
2021/06/08 10:42:26;;;;;;;2.85;1.92;;;23.60;96.00;;;;;;5055509;28;20525;-76
2021/06/08 10:45:04;;;;;;;2.95;2.20;;;23.70;94.80;;;;;;5055952;28;20108;-75
2021/06/08 10:50:00;;;;;;;2.40;1.90;;;23.90;95.00;;;;;;5053017;28;20021;-76
2021/06/08 10:52:27;;;;;;;11.18;2.40;;;24.00;94.40;;;;;;5055777;28;20448;-76
2021/06/08 10:54:54;;;;;;;2.33;2.05;;;24.00;94.80;;;;;;5052144;28;20079;-76
2021/06/08 10:57:20;;;;;;;4.55;2.88;;;23.60;93.70;;;;;;5050653;28;20671;-77
2021/06/08 10:59:51;;;;;;;3.53;2.88;;;23.70;98.30;;;;;;5052569;28;20025;-76
2021/06/08 11:02:44;;;;;;;4.65;2.85;;;23.80;98.00;;;;;;5037500;28;20090;-76
2021/06/08 11:05:10;;;;;;;3.78;2.78;;;24.00;97.30;;;;;;5052144;28;20028;-76
2021/06/08 11:07:49;;;;;;;3.65;3.33;;;24.20;98.20;;;;;;5036709;28;20025;-79
2021/06/08 11:10:27;;;;;;;4.18;3.05;;;24.20;96.60;;;;;;5056390;28;20029;-76
2021/06/08 11:13:08;;;;;;;6.10;3.22;;;24.30;94.50;;;;;;5071696;28;20020;-76
2021/06/08 11:15:36;;;;;;;3.78;2.92;;;24.20;96.00;;;;;;5061044;28;20017;-77
2021/06/08 11:18:22;;;;;;;8.13;3.83;;;24.00;97.40;;;;;;5055298;28;20090;-76
2021/06/08 11:21:02;;;;;;;4.70;3.13;;;23.90;99.40;;;;;;5069066;28;20028;-76
2021/06/08 11:23:32;;;;;;;5.72;3.70;;;24.20;98.00;;;;;;5051690;28;20045;-76
2021/06/08 11:25:58;;;;;;;4.38;2.90;;;24.20;97.80;;;;;;5058155;28;20033;-76
2021/06/08 11:28:44;;;;;;;6.60;3.97;;;24.30;97.70;;;;;;5040918;28;20447;-75
2021/06/08 11:31:10;;;;;;;7.97;3.63;;;24.20;97.40;;;;;;5054276;28;20030;-76
2021/06/08 11:33:37;;;;;;;;;;;24.00;98.30;;;;;;5056466;28;20037;-75
2021/06/08 11:36:23;;;;;;;5.25;3.50;;;24.00;98.30;;;;;;5050268;28;19909;-76
2021/06/08 11:38:51;;;;;;;6.40;3.92;;;23.90;97.80;;;;;;5059271;28;20028;-76
2021/06/08 11:41:18;;;;;;;5.85;4.18;;;23.90;97.60;;;;;;5051043;28;20359;-76
2021/06/08 11:43:49;;;;;;;;;;;24.00;99.20;;;;;;5049418;28;20086;-77
2021/06/08 11:46:30;;;;;;;6.10;4.35;;;23.80;99.90;;;;;;5051108;28;20350;-76
2021/06/08 11:49:07;;;;;;;6.57;3.92;;;23.90;99.90;;;;;;5047818;28;20048;-78
2021/06/08 11:51:41;;;;;;;9.13;4.40;;;23.70;99.90;;;;;;5060147;28;20044;-78
2021/06/08 11:54:15;;;;;;;6.47;4.05;;;23.60;99.90;;;;;;5049025;28;20025;-82
2021/06/08 11:56:41;;;;;;;6.97;4.28;;;23.60;99.90;;;;;;5058579;28;20175;-77
2021/06/08 11:59:07;;;;;;;5.77;4.03;;;23.50;99.90;;;;;;5070927;28;20116;-76
2021/06/08 12:01:37;;;;;;;;;;;23.50;99.80;;;;;;5069834;28;20320;-77
2021/06/08 12:04:03;;;;;;;6.75;3.83;;;23.40;99.90;;;;;;5067464;28;20010;-79
2021/06/08 12:06:58;;;;;;;7.80;3.67;;;23.40;99.90;;;;;;5037866;28;20469;-78
2021/06/08 12:09:25;;;;;;;4.30;3.30;;;23.50;99.40;;;;;;5034162;28;20320;-77
2021/06/08 12:11:53;;;;;;;6.22;3.80;;;23.50;99.90;;;;;;5052642;28;20017;-77
2021/06/08 12:14:22;;;;;;;7.05;3.80;;;23.30;99.90;;;;;;5055475;28;20025;-77
2021/06/08 12:16:56;;;;;;;6.00;3.13;;;23.30;98.40;;;;;;5054680;28;20382;-77
2021/06/08 12:19:27;;;;;;;5.18;2.92;;;23.30;99.90;;;;;;5055126;28;20078;-80
2021/06/08 12:21:55;;;;;;;4.15;2.90;;;23.30;99.90;;;;;;5038885;28;20018;-77
2021/06/08 12:24:22;;;;;;;3.45;2.85;;;23.20;99.90;;;;;;5058696;28;20033;-76
2021/06/08 12:26:52;;;;;;;5.60;2.67;;;23.20;99.90;;;;;;5069944;28;20017;-81
2021/06/08 12:29:18;;;;;;;4.55;3.03;;;23.10;99.30;;;;;;5055029;28;20086;-77
2021/06/08 12:31:54;;;;;;;2.97;2.50;;;23.10;97.70;;;;;;5052485;28;20020;-78
2021/06/08 12:34:20;;;;;;;2.58;2.05;;;23.20;97.30;;;;;;5060734;28;20029;-79
2021/06/08 12:36:49;;;;;;;3.92;2.22;;;23.10;99.60;;;;;;5050949;28;20091;-82
2021/06/08 12:39:17;;;;;;;2.85;2.30;;;23.10;98.60;;;;;;5038432;28;20428;-77
2021/06/08 12:41:44;;;;;;;4.22;2.90;;;23.20;99.00;;;;;;5059797;28;20455;-83
2021/06/08 12:44:10;;;;;;;4.13;2.75;;;23.20;98.40;;;;;;5055895;28;20076;-81
2021/06/08 12:46:40;;;;;;;5.07;2.47;;;23.30;98.40;;;;;;5047421;28;20028;-78
2021/06/08 12:49:14;;;;;;;2.78;1.83;;;23.30;97.10;;;;;;5056861;28;20269;-80
2021/06/08 12:52:01;;;;;;;3.40;2.28;;;23.40;99.50;;;;;;5048972;28;20028;-77
2021/06/08 12:54:31;;;;;;;1.95;1.83;;;23.50;94.40;;;;;;5066696;28;20022;-79
2021/06/08 12:57:02;;;;;;;6.25;2.20;;;23.40;94.50;;;;;;5047031;28;20026;-79
2021/06/08 12:59:32;;;;;;;3.75;2.20;;;23.50;94.30;;;;;;5052172;28;20056;-77